sensor_id;sensor_type;location;lat;lon;timestamp;pressure;altitude;pressure_sealevel;temperature;humidity
57234;BME280;43090;52.604;13.318;2023-07-24T00:01:54;100058.16;;;18.96;79.66
57234;BME280;43090;52.604;13.318;2023-07-24T00:04:20;100059.97;;;19.04;79.18
57234;BME280;43090;52.604;13.318;2023-07-24T00:06:47;100071.72;;;19.20;78.51
57234;BME280;43090;52.604;13.318;2023-07-24T00:09:14;100069.28;;;19.25;77.64
57234;BME280;43090;52.604;13.318;2023-07-24T00:11:40;100057.50;;;19.18;77.81
57234;BME280;43090;52.604;13.318;2023-07-24T00:14:07;100070.88;;;19.19;77.71
57234;BME280;43090;52.604;13.318;2023-07-24T00:16:33;100044.94;;;19.17;77.80
57234;BME280;43090;52.604;13.318;2023-07-24T00:19:00;100062.19;;;19.24;77.55
57234;BME280;43090;52.604;13.318;2023-07-24T00:21:26;100056.13;;;18.98;77.59
57234;BME280;43090;52.604;13.318;2023-07-24T00:23:53;100057.31;;;19.19;76.03
57234;BME280;43090;52.604;13.318;2023-07-24T00:26:19;100056.19;;;19.28;75.08
57234;BME280;43090;52.604;13.318;2023-07-24T00:28:46;100050.19;;;19.18;75.31
57234;BME280;43090;52.604;13.318;2023-07-24T00:31:12;100055.31;;;19.13;74.13
57234;BME280;43090;52.604;13.318;2023-07-24T00:33:39;100033.38;;;19.00;74.47
57234;BME280;43090;52.604;13.318;2023-07-24T00:36:06;100034.03;;;19.02;72.46
57234;BME280;43090;52.604;13.318;2023-07-24T00:38:33;100034.50;;;19.28;71.91
57234;BME280;43090;52.604;13.318;2023-07-24T00:41:00;100033.69;;;19.43;71.69
57234;BME280;43090;52.604;13.318;2023-07-24T00:43:26;100025.25;;;19.38;71.84
57234;BME280;43090;52.604;13.318;2023-07-24T00:45:54;100029.56;;;19.47;71.66
57234;BME280;43090;52.604;13.318;2023-07-24T00:48:21;100039.03;;;19.51;72.82
57234;BME280;43090;52.604;13.318;2023-07-24T00:50:48;100024.91;;;19.41;72.77
57234;BME280;43090;52.604;13.318;2023-07-24T00:53:16;100024.44;;;19.52;71.87
57234;BME280;43090;52.604;13.318;2023-07-24T00:55:44;100018.72;;;19.47;72.32
57234;BME280;43090;52.604;13.318;2023-07-24T00:58:11;100022.63;;;19.44;73.03
57234;BME280;43090;52.604;13.318;2023-07-24T01:00:38;100025.44;;;19.51;72.49
57234;BME280;43090;52.604;13.318;2023-07-24T01:03:06;100023.94;;;19.48;72.06
57234;BME280;43090;52.604;13.318;2023-07-24T01:05:33;100015.06;;;19.40;71.40
57234;BME280;43090;52.604;13.318;2023-07-24T01:08:00;100005.22;;;19.39;73.01
57234;BME280;43090;52.604;13.318;2023-07-24T01:10:26;100012.25;;;19.48;73.26
57234;BME280;43090;52.604;13.318;2023-07-24T01:13:05;100005.56;;;19.21;75.18
57234;BME280;43090;52.604;13.318;2023-07-24T01:15:42;99993.38;;;19.17;75.72
57234;BME280;43090;52.604;13.318;2023-07-24T01:18:13;99998.09;;;19.23;75.39
57234;BME280;43090;52.604;13.318;2023-07-24T01:20:50;99993.03;;;19.20;75.66
57234;BME280;43090;52.604;13.318;2023-07-24T01:23:29;99993.69;;;19.22;75.70
57234;BME280;43090;52.604;13.318;2023-07-24T01:26:03;99997.59;;;19.19;75.71
57234;BME280;43090;52.604;13.318;2023-07-24T01:28:31;99998.47;;;19.20;76.15
57234;BME280;43090;52.604;13.318;2023-07-24T01:30:57;99997.78;;;19.18;76.28
57234;BME280;43090;52.604;13.318;2023-07-24T01:33:24;99999.09;;;19.22;76.57
57234;BME280;43090;52.604;13.318;2023-07-24T01:51:39;99988.16;;;18.14;83.01
57234;BME280;43090;52.604;13.318;2023-07-24T01:54:06;99978.78;;;18.48;80.69
57234;BME280;43090;52.604;13.318;2023-07-24T01:56:35;99990.50;;;18.72;79.72
57234;BME280;43090;52.604;13.318;2023-07-24T01:59:02;99979.63;;;18.80;78.82
57234;BME280;43090;52.604;13.318;2023-07-24T02:01:28;99980.50;;;18.95;77.65
57234;BME280;43090;52.604;13.318;2023-07-24T02:03:55;99977.91;;;19.02;76.45
57234;BME280;43090;52.604;13.318;2023-07-24T02:06:21;99971.06;;;18.91;74.86
57234;BME280;43090;52.604;13.318;2023-07-24T02:08:48;99969.72;;;19.10;73.44
57234;BME280;43090;52.604;13.318;2023-07-24T02:11:17;99974.50;;;19.23;72.48
57234;BME280;43090;52.604;13.318;2023-07-24T02:13:44;99977.16;;;19.31;72.14
57234;BME280;43090;52.604;13.318;2023-07-24T02:16:12;99961.31;;;19.20;73.10
57234;BME280;43090;52.604;13.318;2023-07-24T02:18:41;99964.03;;;19.35;71.59
57234;BME280;43090;52.604;13.318;2023-07-24T02:21:07;99953.22;;;19.50;71.67
57234;BME280;43090;52.604;13.318;2023-07-24T02:23:34;99953.56;;;19.47;71.71
57234;BME280;43090;52.604;13.318;2023-07-24T02:26:01;99959.38;;;19.59;71.91
57234;BME280;43090;52.604;13.318;2023-07-24T02:28:27;99952.72;;;19.61;71.60
57234;BME280;43090;52.604;13.318;2023-07-24T02:30:54;99956.66;;;19.59;72.32
57234;BME280;43090;52.604;13.318;2023-07-24T02:33:23;99950.38;;;19.58;71.92
57234;BME280;43090;52.604;13.318;2023-07-24T02:35:52;99959.09;;;19.69;71.87
57234;BME280;43090;52.604;13.318;2023-07-24T02:38:19;99958.16;;;19.61;72.25
57234;BME280;43090;52.604;13.318;2023-07-24T02:40:45;99951.13;;;19.52;72.11
57234;BME280;43090;52.604;13.318;2023-07-24T02:43:12;99956.00;;;19.72;72.28
57234;BME280;43090;52.604;13.318;2023-07-24T02:45:38;99954.50;;;19.54;72.92
57234;BME280;43090;52.604;13.318;2023-07-24T02:48:05;99967.59;;;19.65;72.98
57234;BME280;43090;52.604;13.318;2023-07-24T02:50:35;99956.84;;;19.42;73.91
57234;BME280;43090;52.604;13.318;2023-07-24T02:53:01;99976.53;;;19.59;73.50
57234;BME280;43090;52.604;13.318;2023-07-24T02:55:28;99979.41;;;19.58;73.82
57234;BME280;43090;52.604;13.318;2023-07-24T02:57:54;99969.09;;;19.53;73.94
57234;BME280;43090;52.604;13.318;2023-07-24T03:00:21;99975.66;;;19.44;74.14
57234;BME280;43090;52.604;13.318;2023-07-24T03:02:48;99981.66;;;19.54;73.60
57234;BME280;43090;52.604;13.318;2023-07-24T03:05:14;99988.03;;;19.61;73.19
57234;BME280;43090;52.604;13.318;2023-07-24T03:07:41;99987.81;;;19.63;72.68
57234;BME280;43090;52.604;13.318;2023-07-24T03:10:08;99981.72;;;19.46;72.10
57234;BME280;43090;52.604;13.318;2023-07-24T03:12:35;99986.16;;;19.62;72.79
57234;BME280;43090;52.604;13.318;2023-07-24T03:15:01;100003.00;;;19.57;74.77
57234;BME280;43090;52.604;13.318;2023-07-24T03:17:28;99987.78;;;19.18;74.94
57234;BME280;43090;52.604;13.318;2023-07-24T03:19:54;99991.75;;;19.45;74.00
57234;BME280;43090;52.604;13.318;2023-07-24T03:22:21;99991.94;;;19.59;74.25
57234;BME280;43090;52.604;13.318;2023-07-24T03:24:48;99984.53;;;19.53;74.01
57234;BME280;43090;52.604;13.318;2023-07-24T03:27:14;99989.72;;;19.62;74.62
57234;BME280;43090;52.604;13.318;2023-07-24T03:29:41;99986.03;;;19.55;74.09
57234;BME280;43090;52.604;13.318;2023-07-24T03:32:07;99998.03;;;19.61;73.65
57234;BME280;43090;52.604;13.318;2023-07-24T03:34:34;99997.38;;;19.74;73.69
57234;BME280;43090;52.604;13.318;2023-07-24T03:37:00;99987.16;;;19.46;74.86
57234;BME280;43090;52.604;13.318;2023-07-24T03:39:27;99985.97;;;19.63;73.95
57234;BME280;43090;52.604;13.318;2023-07-24T03:41:54;99998.22;;;19.74;73.61
57234;BME280;43090;52.604;13.318;2023-07-24T03:44:20;99990.00;;;19.68;73.78
57234;BME280;43090;52.604;13.318;2023-07-24T03:46:47;99998.88;;;19.61;75.80
57234;BME280;43090;52.604;13.318;2023-07-24T03:49:14;99994.41;;;19.69;76.34
57234;BME280;43090;52.604;13.318;2023-07-24T03:51:40;99988.69;;;19.63;77.04
57234;BME280;43090;52.604;13.318;2023-07-24T03:54:07;99993.19;;;19.71;76.89
57234;BME280;43090;52.604;13.318;2023-07-24T03:56:33;99978.94;;;19.54;78.53
57234;BME280;43090;52.604;13.318;2023-07-24T03:59:00;99982.56;;;19.31;81.11
57234;BME280;43090;52.604;13.318;2023-07-24T04:01:26;100000.47;;;19.41;81.59
57234;BME280;43090;52.604;13.318;2023-07-24T04:03:53;99994.28;;;19.47;81.23
57234;BME280;43090;52.604;13.318;2023-07-24T04:06:20;99972.47;;;19.55;80.64
57234;BME280;43090;52.604;13.318;2023-07-24T04:08:46;100000.56;;;19.77;80.32
57234;BME280;43090;52.604;13.318;2023-07-24T04:11:13;99990.81;;;19.53;81.44
57234;BME280;43090;52.604;13.318;2023-07-24T04:13:39;99989.50;;;19.64;81.78
57234;BME280;43090;52.604;13.318;2023-07-24T04:16:06;100004.69;;;19.58;82.38
57234;BME280;43090;52.604;13.318;2023-07-24T04:18:32;99993.84;;;19.58;81.94
57234;BME280;43090;52.604;13.318;2023-07-24T04:20:59;99997.28;;;19.52;83.56
57234;BME280;43090;52.604;13.318;2023-07-24T04:23:25;99982.41;;;19.63;83.33
57234;BME280;43090;52.604;13.318;2023-07-24T04:25:52;99983.16;;;19.72;82.50
57234;BME280;43090;52.604;13.318;2023-07-24T04:28:18;100000.50;;;19.86;82.75
57234;BME280;43090;52.604;13.318;2023-07-24T04:30:45;99998.03;;;19.76;83.16
57234;BME280;43090;52.604;13.318;2023-07-24T04:33:12;99994.09;;;19.78;83.01
57234;BME280;43090;52.604;13.318;2023-07-24T04:35:38;99996.41;;;19.90;82.37
57234;BME280;43090;52.604;13.318;2023-07-24T04:38:05;100003.78;;;19.81;82.21
57234;BME280;43090;52.604;13.318;2023-07-24T04:40:32;100001.59;;;19.61;84.31
57234;BME280;43090;52.604;13.318;2023-07-24T04:42:58;100008.72;;;19.77;83.95
57234;BME280;43090;52.604;13.318;2023-07-24T04:45:25;100002.19;;;19.87;83.25
57234;BME280;43090;52.604;13.318;2023-07-24T04:47:52;99999.75;;;19.92;82.38
57234;BME280;43090;52.604;13.318;2023-07-24T04:50:18;100002.75;;;19.97;82.40
57234;BME280;43090;52.604;13.318;2023-07-24T04:52:45;99992.53;;;19.84;83.20
57234;BME280;43090;52.604;13.318;2023-07-24T04:55:11;99973.81;;;19.89;82.95
57234;BME280;43090;52.604;13.318;2023-07-24T04:57:38;99987.75;;;20.01;82.62
57234;BME280;43090;52.604;13.318;2023-07-24T05:00:05;99977.34;;;20.05;82.34
57234;BME280;43090;52.604;13.318;2023-07-24T05:02:32;99979.22;;;20.04;81.83
57234;BME280;43090;52.604;13.318;2023-07-24T05:04:58;99992.19;;;20.24;81.74
57234;BME280;43090;52.604;13.318;2023-07-24T05:07:25;99990.00;;;20.12;82.36
57234;BME280;43090;52.604;13.318;2023-07-24T05:09:52;99972.00;;;20.11;82.00
57234;BME280;43090;52.604;13.318;2023-07-24T05:12:18;99972.28;;;20.17;81.63
57234;BME280;43090;52.604;13.318;2023-07-24T05:14:45;99969.91;;;20.13;81.48
57234;BME280;43090;52.604;13.318;2023-07-24T05:17:11;99967.31;;;20.20;81.50
57234;BME280;43090;52.604;13.318;2023-07-24T05:19:38;99959.50;;;20.17;81.23
57234;BME280;43090;52.604;13.318;2023-07-24T05:22:04;99974.75;;;20.33;81.24
57234;BME280;43090;52.604;13.318;2023-07-24T05:24:31;99964.31;;;20.15;81.91
57234;BME280;43090;52.604;13.318;2023-07-24T05:26:58;99961.31;;;20.10;80.90
57234;BME280;43090;52.604;13.318;2023-07-24T05:29:24;99959.22;;;20.27;78.83
57234;BME280;43090;52.604;13.318;2023-07-24T05:31:51;99953.41;;;20.30;80.69
57234;BME280;43090;52.604;13.318;2023-07-24T05:34:17;99947.69;;;20.46;81.24
57234;BME280;43090;52.604;13.318;2023-07-24T05:36:44;99942.25;;;20.25;80.10
57234;BME280;43090;52.604;13.318;2023-07-24T05:39:10;99936.63;;;20.26;81.80
57234;BME280;43090;52.604;13.318;2023-07-24T05:41:37;99931.44;;;20.10;80.78
57234;BME280;43090;52.604;13.318;2023-07-24T05:44:06;99936.75;;;20.40;79.00
57234;BME280;43090;52.604;13.318;2023-07-24T05:46:32;99949.31;;;20.19;80.39
57234;BME280;43090;52.604;13.318;2023-07-24T05:48:59;99931.56;;;20.02;81.33
57234;BME280;43090;52.604;13.318;2023-07-24T05:51:28;99935.84;;;20.33;79.40
57234;BME280;43090;52.604;13.318;2023-07-24T05:53:54;99954.63;;;20.49;79.54
57234;BME280;43090;52.604;13.318;2023-07-24T05:56:21;99925.19;;;20.31;82.29
57234;BME280;43090;52.604;13.318;2023-07-24T05:58:47;99926.94;;;20.60;81.00
57234;BME280;43090;52.604;13.318;2023-07-24T06:01:14;99924.00;;;20.62;79.44
57234;BME280;43090;52.604;13.318;2023-07-24T06:03:40;99925.34;;;20.88;77.67
57234;BME280;43090;52.604;13.318;2023-07-24T06:06:07;99914.69;;;20.50;78.13
57234;BME280;43090;52.604;13.318;2023-07-24T06:08:34;99916.66;;;20.77;78.27
57234;BME280;43090;52.604;13.318;2023-07-24T06:11:01;99916.09;;;20.89;76.83
57234;BME280;43090;52.604;13.318;2023-07-24T06:13:27;99919.53;;;20.97;75.08
57234;BME280;43090;52.604;13.318;2023-07-24T06:15:54;99909.06;;;20.73;76.19
57234;BME280;43090;52.604;13.318;2023-07-24T06:18:21;99910.00;;;20.80;76.68
57234;BME280;43090;52.604;13.318;2023-07-24T06:20:52;99918.09;;;21.02;77.26
57234;BME280;43090;52.604;13.318;2023-07-24T06:23:19;99913.31;;;21.04;76.40
57234;BME280;43090;52.604;13.318;2023-07-24T06:25:48;99903.38;;;20.89;75.43
57234;BME280;43090;52.604;13.318;2023-07-24T06:28:19;99914.63;;;20.86;73.28
57234;BME280;43090;52.604;13.318;2023-07-24T06:30:46;99896.97;;;20.75;74.71
57234;BME280;43090;52.604;13.318;2023-07-24T06:33:12;99913.28;;;20.75;74.27
57234;BME280;43090;52.604;13.318;2023-07-24T06:35:39;99892.59;;;20.59;75.28
57234;BME280;43090;52.604;13.318;2023-07-24T06:38:05;99900.94;;;21.01;73.53
57234;BME280;43090;52.604;13.318;2023-07-24T06:40:34;99890.13;;;20.86;74.14
57234;BME280;43090;52.604;13.318;2023-07-24T06:43:01;99900.50;;;20.97;72.75
57234;BME280;43090;52.604;13.318;2023-07-24T06:45:28;99889.00;;;20.74;74.81
57234;BME280;43090;52.604;13.318;2023-07-24T06:47:56;99899.34;;;20.63;73.97
57234;BME280;43090;52.604;13.318;2023-07-24T06:50:22;99893.34;;;20.96;72.76
57234;BME280;43090;52.604;13.318;2023-07-24T06:52:54;99860.13;;;20.73;73.00
57234;BME280;43090;52.604;13.318;2023-07-24T06:55:24;99868.88;;;20.96;72.88
57234;BME280;43090;52.604;13.318;2023-07-24T06:57:50;99884.34;;;21.24;73.33
57234;BME280;43090;52.604;13.318;2023-07-24T07:00:17;99851.25;;;20.92;72.24
57234;BME280;43090;52.604;13.318;2023-07-24T07:02:44;99853.25;;;21.05;71.18
57234;BME280;43090;52.604;13.318;2023-07-24T07:05:18;99851.63;;;21.18;70.40
57234;BME280;43090;52.604;13.318;2023-07-24T07:07:44;99850.84;;;21.24;70.40
57234;BME280;43090;52.604;13.318;2023-07-24T07:10:11;99859.19;;;21.57;69.48
57234;BME280;43090;52.604;13.318;2023-07-24T07:12:38;99858.19;;;21.72;69.63
57234;BME280;43090;52.604;13.318;2023-07-24T07:15:07;99832.47;;;21.81;69.76
57234;BME280;43090;52.604;13.318;2023-07-24T07:17:34;99852.28;;;21.61;70.14
57234;BME280;43090;52.604;13.318;2023-07-24T07:20:00;99860.13;;;21.78;68.87
57234;BME280;43090;52.604;13.318;2023-07-24T07:22:27;99835.09;;;21.54;67.83
57234;BME280;43090;52.604;13.318;2023-07-24T07:24:53;99856.56;;;21.84;67.43
57234;BME280;43090;52.604;13.318;2023-07-24T07:27:20;99856.13;;;21.74;67.59
57234;BME280;43090;52.604;13.318;2023-07-24T07:29:47;99848.84;;;21.94;67.21
57234;BME280;43090;52.604;13.318;2023-07-24T07:32:13;99850.78;;;22.27;64.72
57234;BME280;43090;52.604;13.318;2023-07-24T07:34:40;99852.50;;;22.49;65.47
57234;BME280;43090;52.604;13.318;2023-07-24T07:37:06;99847.03;;;22.28;64.64
57234;BME280;43090;52.604;13.318;2023-07-24T07:39:33;99863.22;;;22.43;64.05
57234;BME280;43090;52.604;13.318;2023-07-24T07:42:02;99867.63;;;22.58;64.28
57234;BME280;43090;52.604;13.318;2023-07-24T07:44:43;99852.50;;;22.82;61.96
57234;BME280;43090;52.604;13.318;2023-07-24T07:47:12;99872.41;;;23.09;59.72
57234;BME280;43090;52.604;13.318;2023-07-24T07:49:39;99846.66;;;22.78;60.36
57234;BME280;43090;52.604;13.318;2023-07-24T07:52:07;99851.66;;;22.82;61.65
57234;BME280;43090;52.604;13.318;2023-07-24T07:54:36;99875.13;;;23.29;59.04
57234;BME280;43090;52.604;13.318;2023-07-24T07:57:08;99844.88;;;23.24;59.45
57234;BME280;43090;52.604;13.318;2023-07-24T07:59:42;99841.72;;;23.34;58.70
57234;BME280;43090;52.604;13.318;2023-07-24T08:02:12;99861.19;;;23.58;58.76
57234;BME280;43090;52.604;13.318;2023-07-24T08:04:38;99873.28;;;23.75;58.12
57234;BME280;43090;52.604;13.318;2023-07-24T08:07:05;99857.41;;;23.59;60.22
57234;BME280;43090;52.604;13.318;2023-07-24T08:09:31;99836.69;;;23.24;58.11
57234;BME280;43090;52.604;13.318;2023-07-24T08:11:59;99855.72;;;23.58;57.85
57234;BME280;43090;52.604;13.318;2023-07-24T08:14:29;99868.06;;;23.74;56.78
57234;BME280;43090;52.604;13.318;2023-07-24T08:16:56;99828.03;;;23.48;57.39
57234;BME280;43090;52.604;13.318;2023-07-24T08:19:48;99860.28;;;23.71;57.77
57234;BME280;43090;52.604;13.318;2023-07-24T08:22:14;99832.59;;;23.60;57.30
57234;BME280;43090;52.604;13.318;2023-07-24T08:24:41;99851.06;;;23.65;58.72
57234;BME280;43090;52.604;13.318;2023-07-24T08:27:08;99821.72;;;23.47;58.98
57234;BME280;43090;52.604;13.318;2023-07-24T08:29:37;99842.09;;;23.51;59.02
57234;BME280;43090;52.604;13.318;2023-07-24T08:32:05;99839.84;;;23.28;59.03
57234;BME280;43090;52.604;13.318;2023-07-24T08:34:31;99835.56;;;23.45;58.89
57234;BME280;43090;52.604;13.318;2023-07-24T08:37:07;99805.22;;;23.02;58.42
57234;BME280;43090;52.604;13.318;2023-07-24T08:39:36;99823.84;;;23.38;58.26
57234;BME280;43090;52.604;13.318;2023-07-24T08:42:12;99811.75;;;23.14;57.82
57234;BME280;43090;52.604;13.318;2023-07-24T08:44:39;99822.09;;;23.51;58.29
57234;BME280;43090;52.604;13.318;2023-07-24T08:47:31;99826.09;;;23.55;57.81
57234;BME280;43090;52.604;13.318;2023-07-24T08:54:28;99805.94;;;23.49;56.51
57234;BME280;43090;52.604;13.318;2023-07-24T08:56:55;99808.31;;;23.32;57.24
57234;BME280;43090;52.604;13.318;2023-07-24T08:59:23;99793.97;;;23.50;56.69
57234;BME280;43090;52.604;13.318;2023-07-24T09:01:50;99767.03;;;23.60;56.46
57234;BME280;43090;52.604;13.318;2023-07-24T09:04:18;99800.00;;;24.04;56.48
57234;BME280;43090;52.604;13.318;2023-07-24T09:06:45;99793.03;;;24.08;54.95
57234;BME280;43090;52.604;13.318;2023-07-24T09:09:13;99780.81;;;23.72;54.65
57234;BME280;43090;52.604;13.318;2023-07-24T09:11:52;99764.31;;;23.92;55.39
57234;BME280;43090;52.604;13.318;2023-07-24T09:14:31;99758.47;;;23.82;56.03
57234;BME280;43090;52.604;13.318;2023-07-24T09:17:08;99767.00;;;23.99;55.65
57234;BME280;43090;52.604;13.318;2023-07-24T09:19:44;99746.66;;;23.95;55.23
57234;BME280;43090;52.604;13.318;2023-07-24T09:25:52;99745.16;;;23.99;55.29
57234;BME280;43090;52.604;13.318;2023-07-24T09:32:34;99749.19;;;23.90;56.54
57234;BME280;43090;52.604;13.318;2023-07-24T09:35:02;99771.09;;;23.83;54.56
57234;BME280;43090;52.604;13.318;2023-07-24T09:37:35;99731.88;;;23.64;54.95
57234;BME280;43090;52.604;13.318;2023-07-24T09:40:05;99771.81;;;24.04;56.45
57234;BME280;43090;52.604;13.318;2023-07-24T09:42:43;99772.75;;;23.91;55.62
57234;BME280;43090;52.604;13.318;2023-07-24T09:45:30;99756.00;;;23.74;56.12
57234;BME280;43090;52.604;13.318;2023-07-24T09:48:01;99768.09;;;24.23;54.55
57234;BME280;43090;52.604;13.318;2023-07-24T09:50:35;99750.97;;;24.09;54.28
57234;BME280;43090;52.604;13.318;2023-07-24T09:53:02;99770.22;;;24.47;55.01
57234;BME280;43090;52.604;13.318;2023-07-24T10:02:34;99740.56;;;24.62;53.56
57234;BME280;43090;52.604;13.318;2023-07-24T10:05:01;99721.78;;;24.72;52.60
57234;BME280;43090;52.604;13.318;2023-07-24T10:07:29;99714.22;;;24.49;53.40
57234;BME280;43090;52.604;13.318;2023-07-24T10:09:56;99719.97;;;24.85;54.08
57234;BME280;43090;52.604;13.318;2023-07-24T10:12:28;99700.81;;;24.66;53.26
57234;BME280;43090;52.604;13.318;2023-07-24T10:19:43;99673.94;;;24.93;52.41
57234;BME280;43090;52.604;13.318;2023-07-24T10:23:16;99669.66;;;24.98;52.15
57234;BME280;43090;52.604;13.318;2023-07-24T10:25:54;99701.63;;;25.04;51.38
57234;BME280;43090;52.604;13.318;2023-07-24T10:28:39;99690.91;;;25.33;48.14
57234;BME280;43090;52.604;13.318;2023-07-24T10:33:49;99670.06;;;24.83;50.27
57234;BME280;43090;52.604;13.318;2023-07-24T10:36:18;99674.28;;;25.16;49.71
57234;BME280;43090;52.604;13.318;2023-07-24T10:38:46;99632.78;;;25.31;50.11
57234;BME280;43090;52.604;13.318;2023-07-24T10:41:37;99653.69;;;25.43;49.63
57234;BME280;43090;52.604;13.318;2023-07-24T10:44:30;99649.16;;;25.49;48.44
57234;BME280;43090;52.604;13.318;2023-07-24T10:46:56;99630.38;;;25.22;48.35
57234;BME280;43090;52.604;13.318;2023-07-24T10:49:24;99645.72;;;25.42;48.87
57234;BME280;43090;52.604;13.318;2023-07-24T10:51:58;99640.72;;;25.39;47.29
57234;BME280;43090;52.604;13.318;2023-07-24T10:54:25;99634.53;;;25.25;46.78
57234;BME280;43090;52.604;13.318;2023-07-24T10:56:58;99639.75;;;25.45;48.39
57234;BME280;43090;52.604;13.318;2023-07-24T10:59:40;99627.88;;;25.21;46.79
57234;BME280;43090;52.604;13.318;2023-07-24T11:05:17;99629.66;;;25.46;48.29
57234;BME280;43090;52.604;13.318;2023-07-24T11:07:45;99617.75;;;25.64;46.13
57234;BME280;43090;52.604;13.318;2023-07-24T11:10:20;99603.50;;;25.85;46.71
57234;BME280;43090;52.604;13.318;2023-07-24T11:12:48;99582.75;;;25.23;47.78
57234;BME280;43090;52.604;13.318;2023-07-24T11:15:23;99576.16;;;25.13;48.21
57234;BME280;43090;52.604;13.318;2023-07-24T11:17:51;99576.16;;;25.13;46.43
57234;BME280;43090;52.604;13.318;2023-07-24T11:20:26;99576.47;;;24.74;47.96
57234;BME280;43090;52.604;13.318;2023-07-24T11:22:58;99584.97;;;24.84;47.69
57234;BME280;43090;52.604;13.318;2023-07-24T11:25:24;99554.50;;;24.62;48.06
57234;BME280;43090;52.604;13.318;2023-07-24T11:27:51;99590.25;;;24.98;46.98
57234;BME280;43090;52.604;13.318;2023-07-24T11:30:24;99597.69;;;25.09;47.58
57234;BME280;43090;52.604;13.318;2023-07-24T11:33:11;99601.41;;;25.15;48.03
57234;BME280;43090;52.604;13.318;2023-07-24T11:35:45;99569.31;;;24.91;46.72
57234;BME280;43090;52.604;13.318;2023-07-24T11:38:16;99555.28;;;25.00;48.26
57234;BME280;43090;52.604;13.318;2023-07-24T11:40:43;99552.13;;;24.84;47.83
57234;BME280;43090;52.604;13.318;2023-07-24T11:43:24;99565.81;;;25.15;46.78
57234;BME280;43090;52.604;13.318;2023-07-24T11:45:52;99543.84;;;25.03;48.19
57234;BME280;43090;52.604;13.318;2023-07-24T11:48:21;99555.91;;;25.14;47.40
57234;BME280;43090;52.604;13.318;2023-07-24T11:50:54;99554.66;;;24.98;47.66
57234;BME280;43090;52.604;13.318;2023-07-24T11:53:31;99560.09;;;24.86;47.77
57234;BME280;43090;52.604;13.318;2023-07-24T11:55:59;99555.75;;;24.66;48.76
57234;BME280;43090;52.604;13.318;2023-07-24T11:58:27;99569.50;;;24.59;48.24
57234;BME280;43090;52.604;13.318;2023-07-24T12:00:55;99566.63;;;24.54;48.31
57234;BME280;43090;52.604;13.318;2023-07-24T12:03:26;99607.19;;;24.76;47.68
57234;BME280;43090;52.604;13.318;2023-07-24T12:05:54;99622.84;;;24.50;48.58
57234;BME280;43090;52.604;13.318;2023-07-24T12:08:21;99640.41;;;24.24;53.49
57234;BME280;43090;52.604;13.318;2023-07-24T12:10:55;99665.66;;;23.69;59.87
57234;BME280;43090;52.604;13.318;2023-07-24T12:13:22;99675.97;;;23.35;64.81
57234;BME280;43090;52.604;13.318;2023-07-24T12:15:49;99689.38;;;22.91;68.31
57234;BME280;43090;52.604;13.318;2023-07-24T12:18:16;99677.09;;;22.61;69.24
57234;BME280;43090;52.604;13.318;2023-07-24T12:20:42;99667.50;;;22.45;72.41
57234;BME280;43090;52.604;13.318;2023-07-24T12:23:09;99645.31;;;21.88;77.74
57234;BME280;43090;52.604;13.318;2023-07-24T12:25:35;99646.53;;;21.72;79.96
57234;BME280;43090;52.604;13.318;2023-07-24T12:28:01;99642.78;;;21.87;78.20
57234;BME280;43090;52.604;13.318;2023-07-24T12:30:28;99632.94;;;21.92;78.16
57234;BME280;43090;52.604;13.318;2023-07-24T12:32:55;99649.50;;;21.98;79.38
57234;BME280;43090;52.604;13.318;2023-07-24T12:35:21;99659.56;;;21.97;82.31
57234;BME280;43090;52.604;13.318;2023-07-24T12:37:48;99642.53;;;22.28;81.62
57234;BME280;43090;52.604;13.318;2023-07-24T12:40:14;99650.25;;;22.65;82.60
57234;BME280;43090;52.604;13.318;2023-07-24T12:42:41;99651.97;;;23.05;80.24
57234;BME280;43090;52.604;13.318;2023-07-24T12:45:08;99638.75;;;22.95;78.15
57234;BME280;43090;52.604;13.318;2023-07-24T12:47:34;99639.19;;;22.92;78.72
57234;BME280;43090;52.604;13.318;2023-07-24T12:50:01;99646.69;;;23.03;77.85
57234;BME280;43090;52.604;13.318;2023-07-24T12:52:30;99628.56;;;22.77;73.64
57234;BME280;43090;52.604;13.318;2023-07-24T12:54:57;99637.03;;;23.07;76.86
57234;BME280;43090;52.604;13.318;2023-07-24T12:57:28;99638.69;;;23.08;76.60
57234;BME280;43090;52.604;13.318;2023-07-24T12:59:54;99629.88;;;23.45;78.33
57234;BME280;43090;52.604;13.318;2023-07-24T13:02:21;99637.53;;;23.61;75.54
57234;BME280;43090;52.604;13.318;2023-07-24T13:04:47;99628.56;;;23.54;76.12
57234;BME280;43090;52.604;13.318;2023-07-24T13:07:14;99641.88;;;23.69;75.85
57234;BME280;43090;52.604;13.318;2023-07-24T13:09:40;99631.06;;;23.56;75.85
57234;BME280;43090;52.604;13.318;2023-07-24T13:12:08;99639.03;;;23.89;75.35
57234;BME280;43090;52.604;13.318;2023-07-24T13:14:34;99636.91;;;23.91;71.19
57234;BME280;43090;52.604;13.318;2023-07-24T13:17:02;99629.09;;;23.70;72.24
57234;BME280;43090;52.604;13.318;2023-07-24T13:19:28;99630.66;;;23.84;69.08
57234;BME280;43090;52.604;13.318;2023-07-24T13:21:55;99622.81;;;24.13;70.27
57234;BME280;43090;52.604;13.318;2023-07-24T13:24:21;99604.47;;;24.20;72.54
57234;BME280;43090;52.604;13.318;2023-07-24T13:26:48;99596.81;;;24.04;67.32
57234;BME280;43090;52.604;13.318;2023-07-24T13:29:15;99593.69;;;24.25;67.86
57234;BME280;43090;52.604;13.318;2023-07-24T13:31:42;99596.47;;;24.56;68.49
57234;BME280;43090;52.604;13.318;2023-07-24T13:34:08;99585.16;;;24.52;65.72
57234;BME280;43090;52.604;13.318;2023-07-24T13:36:35;99596.88;;;24.78;64.23
57234;BME280;43090;52.604;13.318;2023-07-24T13:39:02;99577.03;;;24.45;67.72
57234;BME280;43090;52.604;13.318;2023-07-24T13:41:29;99564.63;;;24.61;65.53